Time;durP1;ratioP1;P1;durP2;ratioP2;P2;SDS_P1;SDS_P2;PMS_P1;PMS_P2;Temp;Humidity;BMP_temperature;BMP_pressure;BME280_temperature;BME280_humidity;BME280_pressure;Samples;Min_cycle;Max_cycle;Signal;HPM_P1;HPM_P2
2023/09/13 00:07:28;;;;;;;35.73;24.30;;;18.80;99.90;;;;;;6279871;22;20649;-85
2023/09/13 00:37:25;;;;;;;35.93;24.43;;;18.50;99.90;;;;;;4279757;27;21029333;-83
2023/09/13 00:42:01;;;;;;;35.70;25.40;;;18.50;99.90;;;;;;4852140;29;20574;-83
2023/09/13 00:45:38;;;;;;;35.87;25.00;;;18.60;99.90;;;;;;4840901;29;20196;-83
2023/09/13 00:48:40;;;;;;;;;;;;;;;;;;;;;
2023/09/13 00:51:49;;;;;;;36.63;25.33;;;18.40;99.90;;;;;;4816484;29;20248;-82
2023/09/13 00:54:54;;;;;;;39.30;26.40;;;18.40;99.90;;;;;;4831914;29;20605;-83
2023/09/13 00:57:46;;;;;;;37.37;26.33;;;18.40;99.90;;;;;;4833227;29;20209;-83
2023/09/13 01:00:53;;;;;;;35.97;26.20;;;18.30;99.90;;;;;;4835735;29;20238;-83
2023/09/13 01:03:53;;;;;;;36.43;25.83;;;18.30;99.90;;;;;;4833939;29;20422;-83
2023/09/13 01:06:47;;;;;;;40.50;27.43;;;18.20;99.90;;;;;;4799367;29;20614;-83
2023/09/13 01:10:11;;;;;;;38.63;26.87;;;18.20;99.90;;;;;;4773827;29;20362;-82
2023/09/13 01:13:15;;;;;;;38.40;26.83;;;18.10;99.90;;;;;;4854422;29;20212;-82
2023/09/13 01:16:55;;;;;;;;;;;;;;;;;;;;;
2023/09/13 01:20:03;;;;;;;40.67;29.23;;;18.10;99.90;;;;;;4854456;29;20265;-82
2023/09/13 01:23:19;;;;;;;37.37;27.90;;;18.10;99.90;;;;;;4840167;29;20238;-83
2023/09/13 01:26:40;;;;;;;39.33;27.77;;;18.20;99.90;;;;;;4821252;29;20671;-82
2023/09/13 01:33:16;;;;;;;44.00;29.93;;;18.20;99.90;;;;;;4749305;30;20218;-83
2023/09/13 01:36:30;;;;;;;39.27;28.50;;;18.10;99.90;;;;;;4763099;30;20767;-83
2023/09/13 01:39:22;;;;;;;43.03;29.07;;;18.20;99.90;;;;;;4780761;30;20220;-82
2023/09/13 01:42:52;;;;;;;;;;;;;;;;;;;;;
2023/09/13 01:45:58;;;;;;;40.63;28.50;;;18.10;99.90;;;;;;4773353;30;20297;-81
2023/09/13 01:48:43;;;;;;;42.63;29.10;;;18.00;99.90;;;;;;4787011;30;20275;-82
2023/09/13 01:51:33;;;;;;;41.40;28.97;;;18.00;99.90;;;;;;4787273;30;20220;-83
2023/09/13 01:54:56;;;;;;;44.07;28.47;;;17.90;99.90;;;;;;4762977;30;20364;-83
2023/09/13 01:58:26;;;;;;;;;;;;;;;;;;;;;
2023/09/13 02:01:27;;;;;;;42.07;29.23;;;17.90;99.90;;;;;;4769217;30;20641;-81
2023/09/13 02:08:31;;;;;;;41.17;29.20;;;17.80;99.90;;;;;;4725398;30;20557;-83
2023/09/13 02:15:46;;;;;;;45.97;29.70;;;17.80;99.90;;;;;;4696398;30;20247;-82
2023/09/13 02:18:42;;;;;;;47.23;31.57;;;17.80;99.90;;;;;;4672066;30;20236;-83
2023/09/13 02:22:12;;;;;;;44.30;29.80;;;17.70;99.90;;;;;;4681565;30;20274;-83
2023/09/13 02:25:10;;;;;;;49.30;30.43;;;17.80;99.90;;;;;;4643991;30;20729;-83
2023/09/13 02:28:05;;;;;;;43.77;30.10;;;17.60;99.90;;;;;;4643661;30;20199;-83
2023/09/13 02:30:52;;;;;;;46.10;30.77;;;17.60;99.90;;;;;;4634356;30;20595;-83
2023/09/13 02:33:40;;;;;;;46.80;30.70;;;17.50;99.90;;;;;;4637672;30;20251;-83
2023/09/13 02:36:15;;;;;;;40.50;29.63;;;17.40;99.90;;;;;;4649536;30;20253;-82
2023/09/13 02:38:50;;;;;;;44.67;31.60;;;17.40;99.90;;;;;;4667697;30;20216;-82
2023/09/13 02:41:21;;;;;;;46.70;31.83;;;17.40;99.90;;;;;;4684623;30;20192;-83
2023/09/13 02:44:08;;;;;;;44.57;30.40;;;17.30;99.90;;;;;;4687526;30;20199;-83
2023/09/13 02:47:29;;;;;;;43.87;30.57;;;17.30;99.90;;;;;;4748774;30;20698;-83
2023/09/13 02:50:27;;;;;;;42.63;30.27;;;17.40;99.90;;;;;;4749886;30;20697;-83
2023/09/13 02:53:24;;;;;;;;;;;;;;;;;;;;;
2023/09/13 02:56:17;;;;;;;46.67;31.80;;;17.00;99.90;;;;;;4806179;29;20680;-83
2023/09/13 02:59:08;;;;;;;43.03;30.23;;;17.20;99.90;;;;;;4787019;29;20215;-82
2023/09/13 03:01:50;;;;;;;43.83;30.67;;;17.10;99.90;;;;;;4832474;29;20209;-82
2023/09/13 03:04:28;;;;;;;43.20;30.27;;;17.10;99.90;;;;;;4843406;29;20210;-83
2023/09/13 03:07:18;;;;;;;47.07;30.63;;;17.10;99.90;;;;;;4873340;29;20225;-83
2023/09/13 03:14:00;;;;;;;44.67;29.77;;;17.00;99.90;;;;;;4913564;29;20210;-82
2023/09/13 03:16:33;;;;;;;48.53;31.67;;;17.00;99.90;;;;;;4883606;29;20283;-82
2023/09/13 03:19:10;;;;;;;45.57;31.03;;;17.10;99.90;;;;;;4915676;29;20211;-82
2023/09/13 03:21:39;;;;;;;47.13;30.90;;;17.00;99.90;;;;;;4928789;29;20317;-82
2023/09/13 03:24:09;;;;;;;46.40;31.70;;;17.00;99.90;;;;;;4933476;29;20568;-82
2023/09/13 03:26:42;;;;;;;49.50;32.03;;;17.00;99.90;;;;;;4918875;29;20199;-82
2023/09/13 03:29:17;;;;;;;45.50;31.30;;;16.90;99.90;;;;;;4933305;29;20278;-82
2023/09/13 03:31:50;;;;;;;45.97;31.40;;;16.90;99.90;;;;;;4933962;29;20533;-82
2023/09/13 03:34:26;;;;;;;44.07;30.67;;;16.90;99.90;;;;;;4918417;29;20742;-82
2023/09/13 03:37:10;;;;;;;;;;;;;;;;;;;;;
2023/09/13 03:40:00;;;;;;;46.97;31.87;;;16.90;99.90;;;;;;4932847;29;20203;-82
2023/09/13 03:42:45;;;;;;;46.73;31.20;;;16.80;99.90;;;;;;4917172;29;20658;-83
2023/09/13 03:45:56;;;;;;;46.00;31.40;;;16.80;99.90;;;;;;4869734;29;20618;-83
2023/09/13 03:48:31;;;;;;;48.47;32.87;;;16.70;99.90;;;;;;4857560;29;20590;-82
2023/09/13 03:51:11;;;;;;;46.70;32.03;;;16.70;99.90;;;;;;4859085;29;20225;-83
2023/09/13 03:54:21;;;;;;;;;;;;;;;;;;;;;
2023/09/13 04:01:29;;;;;;;49.33;32.00;;;16.50;99.90;;;;;;4839167;29;20225;-82
2023/09/13 04:08:34;;;;;;;51.13;32.97;;;16.60;99.90;;;;;;4802412;29;20215;-81
2023/09/13 04:24:05;;;;;;;52.17;33.77;;;16.60;99.90;;;;;;4824429;26;20573;-84
2023/09/13 04:28:25;;;;;;;49.80;32.93;;;16.40;99.90;;;;;;4885774;29;20634;-82
2023/09/13 04:31:51;;;;;;;51.20;33.90;;;16.60;99.90;;;;;;4913543;29;20199;-84
2023/09/13 04:35:03;;;;;;;;;;;;;;;;;;;;;
2023/09/13 04:46:58;;;;;;;;;;;;;;;;;;;;;
2023/09/13 04:49:36;;;;;;;48.30;33.30;;;16.70;99.90;;;;;;4784929;29;20195;-82
2023/09/13 04:52:53;;;;;;;48.30;33.30;;;16.60;99.90;;;;;;4786047;29;20693;-83
2023/09/13 04:59:16;;;;;;;50.97;33.53;;;16.60;99.90;;;;;;4699072;30;20195;-82
2023/09/13 05:02:18;;;;;;;46.03;31.63;;;16.70;99.90;;;;;;4698163;30;20715;-83
2023/09/13 05:25:15;;;;;;;48.47;33.00;;;17.20;99.90;;;;;;5818142;24;20286;-83
2023/09/13 05:32:40;;;;;;;65.93;33.77;;;17.40;99.90;;;;;;5800649;24;20208;-83
2023/09/13 05:58:22;;;;;;;;;;;;;;;;;;;;;
2023/09/13 06:02:03;;;;;;;39.77;27.60;;;18.50;99.90;;;;;;5792998;24;20610;-83
2023/09/13 06:10:11;;;;;;;34.60;25.17;;;18.90;99.90;;;;;;5686691;25;20171;-83
2023/09/13 06:23:44;;;;;;;;;;;;;;;;;;;;;
2023/09/13 06:41:38;;;;;;;29.93;19.93;;;20.70;99.90;;;;;;5065617;23;20242;-81
2023/09/13 06:57:54;;;;;;;;;;;;;;;;;;;;;
2023/09/13 07:05:30;;;;;;;33.20;19.03;;;21.60;99.90;;;;;;4834927;29;20283;-78
2023/09/13 07:08:04;;;;;;;32.10;19.67;;;21.70;99.90;;;;;;4790016;29;20238;-80
2023/09/13 07:16:00;;;;;;;;;;;;;;;;;;;;;
2023/09/13 07:27:20;;;;;;;26.10;17.95;;;22.50;99.90;;;;;;6101236;23;20501;-84
2023/09/13 07:30:14;;;;;;;24.67;16.87;;;22.60;99.90;;;;;;5014385;28;20202;-85
2023/09/13 07:33:14;;;;;;;24.43;17.20;;;22.50;99.90;;;;;;4898241;29;20208;-78
2023/09/13 07:50:18;;;;;;;20.93;16.10;;;23.50;99.90;;;;;;4914684;29;20255;-81
2023/09/13 07:53:31;;;;;;;24.43;16.80;;;23.70;99.90;;;;;;4882440;29;20212;-79
2023/09/13 08:15:18;;;;;;;19.90;14.25;;;24.90;99.90;;;;;;6073775;22;20190;-78
2023/09/13 08:18:07;;;;;;;21.80;15.18;;;25.00;99.90;;;;;;5029147;28;20208;-79
2023/09/13 08:20:41;;;;;;;21.73;15.23;;;25.20;99.90;;;;;;5009682;28;20586;-76
2023/09/13 08:23:40;;;;;;;20.23;14.55;;;25.50;99.90;;;;;;5007900;28;20217;-79
2023/09/13 08:26:21;;;;;;;18.15;14.18;;;26.20;99.90;;;;;;5007136;28;20197;-81
2023/09/13 08:29:01;;;;;;;19.67;15.00;;;27.10;99.90;;;;;;5008327;28;20267;-78
2023/09/13 08:31:54;;;;;;;22.88;14.27;;;27.70;99.90;;;;;;4969720;28;20287;-78
2023/09/13 08:34:56;;;;;;;20.23;14.13;;;28.80;99.90;;;;;;4961505;28;20201;-79
2023/09/13 08:37:32;;;;;;;20.60;13.57;;;29.20;99.90;;;;;;4971676;28;20252;-77
2023/09/13 08:40:26;;;;;;;19.13;14.15;;;29.70;99.90;;;;;;4972045;28;20209;-79
2023/09/13 08:43:07;;;;;;;17.63;13.60;;;30.00;99.90;;;;;;4971504;28;20194;-75
2023/09/13 08:45:46;;;;;;;24.50;14.18;;;30.60;99.90;;;;;;4971889;28;20212;-78
2023/09/13 08:48:18;;;;;;;16.38;13.18;;;30.70;99.90;;;;;;4971660;28;20539;-76
2023/09/13 08:50:50;;;;;;;21.35;13.48;;;30.90;99.90;;;;;;4971151;28;20297;-77
2023/09/13 08:53:36;;;;;;;18.77;13.43;;;31.30;99.90;;;;;;4971384;28;20209;-75
2023/09/13 08:56:12;;;;;;;26.58;13.88;;;31.80;99.90;;;;;;4955065;28;20197;-80
2023/09/13 08:58:40;;;;;;;20.60;13.07;;;31.70;99.90;;;;;;4970814;28;20661;-79
2023/09/13 09:01:12;;;;;;;16.35;12.45;;;32.00;99.90;;;;;;4971764;28;20193;-79
2023/09/13 09:04:03;;;;;;;17.83;12.18;;;32.20;99.90;;;;;;4989770;28;20204;-80
2023/09/13 09:06:42;;;;;;;16.70;12.85;;;32.20;99.90;;;;;;4992992;28;20242;-80
2023/09/13 09:09:32;;;;;;;15.15;11.80;;;32.40;99.90;;;;;;5008520;28;20553;-81
2023/09/13 09:12:11;;;;;;;15.57;11.65;;;32.70;99.90;;;;;;4991677;28;20221;-79
2023/09/13 09:14:42;;;;;;;15.10;11.52;;;32.70;98.80;;;;;;5007711;28;20295;-79
2023/09/13 09:17:26;;;;;;;21.05;12.32;;;32.60;98.40;;;;;;4992466;28;20228;-81
2023/09/13 09:20:03;;;;;;;18.08;11.30;;;32.70;97.70;;;;;;5008052;28;20197;-76
2023/09/13 09:22:45;;;;;;;14.80;10.77;;;32.80;97.00;;;;;;4993013;28;20243;-80
2023/09/13 09:25:17;;;;;;;13.55;10.88;;;33.20;95.90;;;;;;5007692;28;20243;-78
2023/09/13 09:27:52;;;;;;;13.02;10.77;;;33.70;95.80;;;;;;5007935;28;20205;-81
2023/09/13 09:30:33;;;;;;;14.00;10.45;;;33.90;93.50;;;;;;5007281;28;20247;-78
2023/09/13 09:33:58;;;;;;;14.60;10.85;;;34.00;93.20;;;;;;4983361;28;20225;-82
2023/09/13 09:36:43;;;;;;;13.25;9.98;;;34.00;91.30;;;;;;5006667;28;20252;-80
2023/09/13 09:39:12;;;;;;;12.95;10.02;;;34.20;91.40;;;;;;4992775;28;20663;-80
2023/09/13 09:41:41;;;;;;;14.18;10.85;;;34.10;90.30;;;;;;4991512;28;20243;-78
2023/09/13 09:44:31;;;;;;;19.90;10.80;;;33.90;89.60;;;;;;5007846;28;20211;-78
2023/09/13 09:47:24;;;;;;;12.70;10.52;;;34.20;90.20;;;;;;4991590;28;20204;-79
2023/09/13 09:50:27;;;;;;;13.88;10.48;;;34.50;89.80;;;;;;5006882;28;20350;-84
2023/09/13 09:56:20;;;;;;;13.73;10.55;;;34.10;86.50;;;;;;4948559;29;20277;-81
2023/09/13 09:59:02;;;;;;;11.45;9.90;;;34.30;86.60;;;;;;4934191;29;20190;-81
2023/09/13 10:06:06;;;;;;;14.43;9.75;;;35.10;85.40;;;;;;4942712;29;20579;-81
2023/09/13 10:15:29;;;;;;;15.25;10.48;;;35.70;78.70;;;;;;5186633;22;20235;-80
2023/09/13 10:28:37;;;;;;;;;;;;;;;;;;;;;
2023/09/13 10:32:48;;;;;;;;;;;;;;;;;;;;;
2023/09/13 10:36:07;;;;;;;15.43;9.57;;;36.20;71.00;;;;;;4845829;29;20226;-78
2023/09/13 10:39:22;;;;;;;14.82;9.15;;;36.10;70.90;;;;;;4821619;29;20206;-81
2023/09/13 10:42:15;;;;;;;11.50;9.57;;;35.90;69.70;;;;;;4837860;29;20205;-77
2023/09/13 10:48:34;;;;;;;23.05;10.15;;;36.70;70.70;;;;;;4752902;29;20196;-80
2023/09/13 10:51:06;;;;;;;13.73;9.32;;;37.10;67.50;;;;;;4751370;29;20692;-80
2023/09/13 10:53:45;;;;;;;11.70;9.60;;;37.00;67.80;;;;;;4751215;30;20193;-78
2023/09/13 11:03:32;;;;;;;12.82;9.93;;;36.40;66.00;;;;;;4884902;29;20618;-79
2023/09/13 11:42:28;;;;;;;10.02;8.20;;;41.50;55.30;;;;;;4973880;28;20220;-78
2023/09/13 11:45:10;;;;;;;11.27;8.55;;;41.10;54.80;;;;;;4972506;28;20370;-79
2023/09/13 11:47:52;;;;;;;9.20;8.25;;;41.60;53.90;;;;;;4970911;28;20296;-75
2023/09/13 11:50:51;;;;;;;11.05;8.10;;;41.90;53.40;;;;;;4960731;28;20223;-81
2023/09/13 11:53:50;;;;;;;11.85;8.50;;;42.10;52.10;;;;;;4977689;28;20220;-76
2023/09/13 11:56:45;;;;;;;11.63;7.88;;;41.80;52.80;;;;;;4993922;28;20216;-77
2023/09/13 11:59:31;;;;;;;9.05;8.13;;;41.10;53.40;;;;;;4976886;28;20209;-77
2023/09/13 12:02:18;;;;;;;13.20;8.60;;;41.10;53.60;;;;;;4993611;28;20678;-78
2023/09/13 12:05:02;;;;;;;12.13;7.72;;;41.00;53.60;;;;;;4992987;28;20185;-79
2023/09/13 12:07:56;;;;;;;10.07;8.50;;;41.80;53.20;;;;;;4980608;28;20205;-79
2023/09/13 12:10:32;;;;;;;10.18;8.43;;;41.50;52.80;;;;;;4992839;28;20239;-77
2023/09/13 12:13:01;;;;;;;12.10;8.55;;;41.00;53.80;;;;;;4993003;28;20214;-80
2023/09/13 12:16:01;;;;;;;12.20;8.30;;;40.40;54.00;;;;;;4976661;28;20209;-77
2023/09/13 12:18:30;;;;;;;10.25;8.75;;;39.80;55.20;;;;;;4910535;28;20247;-81
2023/09/13 12:21:01;;;;;;;15.60;9.43;;;39.60;55.70;;;;;;4992988;28;20223;-77
2023/09/13 12:23:38;;;;;;;11.20;8.30;;;39.50;55.60;;;;;;4992851;28;20199;-75
2023/09/13 12:26:10;;;;;;;9.07;8.18;;;39.60;55.50;;;;;;4993016;28;20201;-78
2023/09/13 12:28:52;;;;;;;12.70;8.48;;;39.50;55.30;;;;;;4993871;28;20185;-86
2023/09/13 12:31:24;;;;;;;10.07;8.20;;;38.70;56.40;;;;;;4977704;28;20193;-81
2023/09/13 12:33:59;;;;;;;10.88;9.10;;;37.90;57.00;;;;;;4976786;28;20211;-84
2023/09/13 12:36:33;;;;;;;12.20;8.70;;;37.00;58.50;;;;;;4993812;28;20303;-82
2023/09/13 12:39:21;;;;;;;11.13;8.82;;;36.40;59.90;;;;;;4976837;28;20202;-77
2023/09/13 12:42:12;;;;;;;14.23;9.23;;;36.10;60.40;;;;;;4992632;28;20193;-76
2023/09/13 12:44:50;;;;;;;15.25;9.90;;;36.40;60.40;;;;;;4991865;28;20201;-78
2023/09/13 12:47:54;;;;;;;12.18;9.30;;;36.50;60.80;;;;;;4975065;28;20577;-79
2023/09/13 12:50:24;;;;;;;11.70;8.88;;;36.90;59.20;;;;;;4994272;28;20236;-84
2023/09/13 12:53:12;;;;;;;11.32;9.27;;;36.20;60.00;;;;;;4992822;28;20765;-83
2023/09/13 12:55:40;;;;;;;12.07;9.45;;;35.10;62.00;;;;;;4992416;28;20204;-80
2023/09/13 12:58:15;;;;;;;14.57;9.32;;;34.90;64.40;;;;;;4991928;28;20636;-80
2023/09/13 13:00:49;;;;;;;12.82;9.50;;;35.40;63.60;;;;;;4992930;28;20275;-76
2023/09/13 13:03:25;;;;;;;13.55;9.30;;;35.40;62.70;;;;;;4993829;28;20216;-82
2023/09/13 13:06:04;;;;;;;14.32;9.60;;;35.20;62.80;;;;;;4992321;28;20347;-79
2023/09/13 13:08:35;;;;;;;12.43;9.40;;;34.80;64.80;;;;;;4975292;28;20671;-75
2023/09/13 13:11:04;;;;;;;11.02;9.30;;;34.70;65.80;;;;;;4991926;28;20204;-77
2023/09/13 13:13:40;;;;;;;11.75;9.25;;;34.50;63.60;;;;;;4973715;28;20697;-82
2023/09/13 13:19:16;;;;;;;19.15;9.30;;;33.70;66.60;;;;;;4991719;28;20262;-75
2023/09/13 13:21:58;;;;;;;12.43;9.48;;;33.50;67.40;;;;;;4990604;28;20303;-77
2023/09/13 13:24:34;;;;;;;11.48;9.40;;;33.30;66.60;;;;;;4992909;28;20239;-79
2023/09/13 13:27:07;;;;;;;13.30;9.90;;;33.20;67.90;;;;;;4994070;28;20275;-79
2023/09/13 13:29:38;;;;;;;14.15;9.70;;;32.90;68.60;;;;;;4992193;28;20204;-77
2023/09/13 13:32:07;;;;;;;13.73;9.60;;;32.70;69.00;;;;;;4989821;28;20248;-76
2023/09/13 13:34:38;;;;;;;13.55;9.60;;;32.80;69.40;;;;;;4991168;28;20231;-77
2023/09/13 13:37:10;;;;;;;11.75;10.20;;;32.70;69.00;;;;;;4990151;28;20223;-77
2023/09/13 13:39:44;;;;;;;16.48;10.23;;;32.50;68.80;;;;;;4973744;28;20204;-82
2023/09/13 13:42:13;;;;;;;13.50;10.35;;;32.30;70.60;;;;;;4992100;28;20687;-76
2023/09/13 13:44:44;;;;;;;15.82;9.88;;;32.30;70.70;;;;;;4991434;28;20348;-73
2023/09/13 13:47:12;;;;;;;12.85;9.90;;;32.30;70.60;;;;;;4991413;28;20197;-81
2023/09/13 13:49:43;;;;;;;11.77;9.85;;;32.20;70.00;;;;;;4990574;28;20295;-81
2023/09/13 13:52:16;;;;;;;14.20;10.00;;;32.00;70.90;;;;;;4990566;28;20615;-80
2023/09/13 13:54:50;;;;;;;14.15;9.95;;;32.10;72.90;;;;;;4990440;28;20227;-75
2023/09/13 13:57:28;;;;;;;13.40;9.88;;;32.00;72.30;;;;;;4990524;28;20201;-75
2023/09/13 14:00:06;;;;;;;14.60;10.13;;;32.10;71.80;;;;;;4991765;28;20273;-77
2023/09/13 14:02:41;;;;;;;13.70;9.73;;;32.00;73.90;;;;;;4991106;28;20281;-82
2023/09/13 14:05:14;;;;;;;15.95;9.77;;;32.00;71.20;;;;;;4974114;28;20196;-85
2023/09/13 14:07:46;;;;;;;13.93;10.25;;;32.10;71.10;;;;;;4975006;28;20231;-73
2023/09/13 14:10:18;;;;;;;19.60;9.63;;;32.00;72.10;;;;;;4991178;28;20224;-77
2023/09/13 14:12:56;;;;;;;11.45;9.98;;;31.90;71.50;;;;;;4992790;28;20216;-73
2023/09/13 14:15:29;;;;;;;13.27;9.80;;;31.70;71.40;;;;;;4990900;28;20232;-84
2023/09/13 14:17:58;;;;;;;15.73;10.50;;;31.40;72.10;;;;;;4974887;28;20192;-76
2023/09/13 14:20:31;;;;;;;14.13;10.07;;;31.40;72.90;;;;;;4991373;28;20286;-78
2023/09/13 14:23:01;;;;;;;17.63;10.23;;;31.40;73.90;;;;;;4992021;28;20233;-77
2023/09/13 14:25:38;;;;;;;15.00;10.02;;;31.30;74.20;;;;;;4992804;28;20245;-78
2023/09/13 14:28:14;;;;;;;15.75;10.75;;;31.20;73.00;;;;;;4974252;28;20295;-75
2023/09/13 14:30:43;;;;;;;15.65;10.23;;;31.10;73.90;;;;;;4991082;28;20189;-77
2023/09/13 14:33:16;;;;;;;14.73;9.93;;;31.10;74.50;;;;;;4975653;28;20212;-81
2023/09/13 14:35:44;;;;;;;15.02;9.82;;;31.00;74.30;;;;;;4996166;28;20545;-76
2023/09/13 14:38:18;;;;;;;12.02;9.88;;;30.90;73.40;;;;;;4995292;28;20324;-76
2023/09/13 14:41:07;;;;;;;11.65;9.30;;;30.90;74.80;;;;;;4993892;28;20224;-75
2023/09/13 14:43:38;;;;;;;18.70;10.48;;;30.80;74.20;;;;;;4994818;28;20201;-76
2023/09/13 14:46:09;;;;;;;13.18;10.23;;;30.70;74.00;;;;;;4976292;28;20193;-77
2023/09/13 14:48:43;;;;;;;14.95;9.55;;;30.60;74.80;;;;;;4993663;28;20272;-75
2023/09/13 14:51:11;;;;;;;16.20;9.85;;;30.50;76.30;;;;;;4994341;28;20223;-81
2023/09/13 14:53:38;;;;;;;12.93;9.80;;;30.50;75.40;;;;;;4994390;28;20363;-77
2023/09/13 14:56:09;;;;;;;14.45;9.88;;;30.50;76.60;;;;;;4995389;28;20280;-73
2023/09/13 14:58:37;;;;;;;13.07;9.85;;;30.50;75.80;;;;;;4994160;28;20216;-74
2023/09/13 15:01:05;;;;;;;14.07;10.07;;;30.50;74.60;;;;;;4995310;28;20196;-75
2023/09/13 15:03:35;;;;;;;13.20;9.40;;;30.50;76.40;;;;;;4996216;28;20663;-74
2023/09/13 15:06:04;;;;;;;13.45;9.70;;;30.50;75.80;;;;;;4994768;28;20221;-76
2023/09/13 15:08:31;;;;;;;14.00;9.77;;;30.60;75.90;;;;;;4977909;28;20204;-81
2023/09/13 15:11:03;;;;;;;14.60;10.32;;;30.60;76.60;;;;;;4995617;28;20247;-82
2023/09/13 15:13:33;;;;;;;12.52;9.70;;;30.70;77.20;;;;;;4994077;28;20227;-79
2023/09/13 15:16:13;;;;;;;14.88;9.85;;;30.70;76.00;;;;;;4994619;28;20193;-77
2023/09/13 15:18:43;;;;;;;14.95;9.77;;;31.00;76.00;;;;;;4995371;28;20212;-77
2023/09/13 15:21:11;;;;;;;14.93;10.00;;;30.90;76.20;;;;;;4977990;28;20291;-76
2023/09/13 15:23:40;;;;;;;14.02;9.63;;;30.80;75.80;;;;;;4993770;28;20189;-77
2023/09/13 15:26:15;;;;;;;14.77;9.50;;;30.70;75.50;;;;;;4994015;28;20232;-79
2023/09/13 15:29:11;;;;;;;12.95;9.20;;;30.60;75.80;;;;;;4993263;28;20192;-77
2023/09/13 15:32:45;;;;;;;14.35;9.45;;;30.60;76.20;;;;;;4979255;28;20211;-80
2023/09/13 15:39:01;;;;;;;13.77;9.75;;;30.60;77.90;;;;;;5006719;26;20389;-81
2023/09/13 15:42:28;;;;;;;15.05;9.68;;;30.60;77.80;;;;;;4956057;28;20210;-81
2023/09/13 15:45:44;;;;;;;12.75;9.93;;;30.50;77.60;;;;;;4916857;28;20232;-77
2023/09/13 15:48:33;;;;;;;13.75;10.07;;;30.40;78.10;;;;;;4972869;28;20205;-85
2023/09/13 15:51:22;;;;;;;15.18;9.73;;;30.10;78.10;;;;;;4971965;28;20605;-87
2023/09/13 15:53:58;;;;;;;18.02;9.63;;;30.10;79.10;;;;;;4973517;28;20217;-80
2023/09/13 15:56:51;;;;;;;15.35;10.02;;;29.90;79.70;;;;;;4973937;28;20197;-87
2023/09/13 15:59:35;;;;;;;17.70;9.60;;;29.90;80.80;;;;;;4960476;28;20217;-89
2023/09/13 16:02:03;;;;;;;17.08;9.73;;;29.60;80.60;;;;;;4974311;28;20204;-85
2023/09/13 16:05:11;;;;;;;;;;;;;;;;;;;;;
2023/09/13 16:08:52;;;;;;;12.43;9.45;;;29.30;81.00;;;;;;4859895;29;20209;-79
2023/09/13 16:11:34;;;;;;;12.02;9.52;;;29.00;81.70;;;;;;4828730;29;20300;-80
2023/09/13 16:14:05;;;;;;;13.73;9.88;;;29.10;82.60;;;;;;4858784;29;20237;-89
2023/09/13 16:16:35;;;;;;;11.40;9.45;;;28.90;82.60;;;;;;4858831;29;20202;-79
2023/09/13 16:19:16;;;;;;;14.15;9.95;;;28.90;82.70;;;;;;4888299;29;20219;-77
2023/09/13 16:21:48;;;;;;;12.95;9.70;;;28.80;83.10;;;;;;4897055;29;20315;-87
2023/09/13 16:25:19;;;;;;;;;;;;;;;;;;;;;
2023/09/13 16:28:10;;;;;;;12.80;9.43;;;28.60;83.50;;;;;;4894295;29;20211;-77
2023/09/13 16:30:38;;;;;;;17.05;9.73;;;28.50;84.10;;;;;;4897347;29;20211;-78
2023/09/13 16:33:15;;;;;;;12.38;9.57;;;28.40;84.30;;;;;;4960535;28;20288;-79
2023/09/13 16:35:46;;;;;;;15.02;9.70;;;28.40;85.00;;;;;;4972336;28;20312;-76
2023/09/13 16:38:17;;;;;;;13.38;9.32;;;28.10;85.20;;;;;;4978677;28;20231;-82
2023/09/13 16:40:46;;;;;;;13.90;10.40;;;28.10;85.70;;;;;;5015491;28;20227;-80
2023/09/13 16:43:14;;;;;;;15.43;10.07;;;28.00;86.00;;;;;;5015734;28;20554;-80
2023/09/13 16:45:44;;;;;;;17.65;11.07;;;27.80;86.50;;;;;;5033632;28;20246;-78
2023/09/13 16:48:14;;;;;;;15.30;10.73;;;27.80;86.70;;;;;;5033561;28;20184;-78
2023/09/13 16:51:02;;;;;;;15.70;10.50;;;27.70;87.30;;;;;;5032897;28;20218;-76
2023/09/13 16:53:38;;;;;;;20.70;10.73;;;27.50;87.60;;;;;;5033070;28;20306;-78
2023/09/13 16:56:05;;;;;;;14.25;10.02;;;27.50;88.70;;;;;;5013802;28;20207;-77
2023/09/13 16:58:36;;;;;;;14.02;10.30;;;27.40;89.00;;;;;;5032376;28;20188;-78
2023/09/13 17:01:07;;;;;;;15.00;10.65;;;27.20;89.50;;;;;;5015180;28;20249;-78
2023/09/13 17:03:42;;;;;;;15.30;10.57;;;27.20;90.10;;;;;;5032999;28;20172;-79
2023/09/13 17:06:12;;;;;;;17.80;11.10;;;27.20;90.40;;;;;;5015652;28;20225;-79
2023/09/13 17:08:44;;;;;;;16.48;11.95;;;27.00;90.80;;;;;;5014929;28;20215;-80
2023/09/13 17:11:18;;;;;;;20.50;12.65;;;26.90;91.00;;;;;;5033520;28;20223;-81
2023/09/13 17:13:48;;;;;;;19.08;11.93;;;26.70;91.10;;;;;;5031381;28;20806;-79
2023/09/13 17:16:18;;;;;;;18.40;11.57;;;26.80;91.60;;;;;;5031222;28;20283;-79
2023/09/13 17:18:50;;;;;;;17.33;12.18;;;26.60;91.80;;;;;;5033769;28;20180;-79
2023/09/13 17:21:21;;;;;;;18.67;12.52;;;26.60;92.20;;;;;;5032405;28;20306;-77
2023/09/13 17:23:49;;;;;;;22.88;13.13;;;26.50;92.50;;;;;;5032356;28;20657;-76
2023/09/13 17:26:20;;;;;;;21.80;13.30;;;26.40;92.80;;;;;;5031016;28;20203;-85
2023/09/13 17:28:48;;;;;;;17.10;12.48;;;26.20;93.00;;;;;;4998972;28;20202;-80
2023/09/13 17:31:16;;;;;;;16.48;12.57;;;26.30;93.30;;;;;;5032050;28;20429;-77
2023/09/13 17:33:45;;;;;;;16.20;12.10;;;26.20;93.40;;;;;;5031757;28;20250;-77
2023/09/13 17:36:18;;;;;;;20.38;13.38;;;26.10;93.60;;;;;;5033025;28;20631;-79
2023/09/13 17:39:09;;;;;;;19.40;13.07;;;26.10;93.90;;;;;;5032148;28;20187;-78
2023/09/13 17:41:42;;;;;;;19.80;12.52;;;26.10;94.10;;;;;;5030759;28;20203;-78
2023/09/13 17:44:11;;;;;;;18.30;13.25;;;26.00;94.30;;;;;;5014060;28;20187;-79
2023/09/13 17:46:39;;;;;;;18.13;13.00;;;26.00;94.50;;;;;;5030080;28;20196;-79
2023/09/13 17:49:10;;;;;;;17.85;12.73;;;26.10;94.60;;;;;;5014446;28;20204;-78
2023/09/13 17:51:38;;;;;;;21.80;13.60;;;25.90;94.60;;;;;;5033298;28;20219;-79
2023/09/13 17:54:10;;;;;;;24.48;15.93;;;25.90;94.70;;;;;;5031435;28;20222;-80
2023/09/13 17:56:40;;;;;;;17.35;12.80;;;25.80;94.90;;;;;;5014318;28;20250;-78
2023/09/13 17:59:10;;;;;;;18.92;13.50;;;25.80;95.10;;;;;;5029759;28;20204;-77
2023/09/13 18:01:44;;;;;;;18.73;12.88;;;25.80;95.20;;;;;;5032312;28;20196;-76
2023/09/13 18:04:15;;;;;;;16.25;12.35;;;25.80;95.30;;;;;;5029284;28;20262;-80
2023/09/13 18:06:48;;;;;;;19.25;12.48;;;25.80;95.80;;;;;;5031505;28;20696;-78
2023/09/13 18:09:17;;;;;;;17.85;13.05;;;25.70;95.50;;;;;;5030938;28;20195;-80
2023/09/13 18:11:51;;;;;;;19.20;13.13;;;25.70;95.50;;;;;;5031463;28;20195;-78
2023/09/13 18:14:23;;;;;;;18.27;12.82;;;25.60;95.70;;;;;;5030511;28;20237;-81
2023/09/13 18:16:54;;;;;;;17.80;12.65;;;25.60;95.70;;;;;;5031303;28;20195;-78
2023/09/13 18:19:27;;;;;;;17.83;12.95;;;25.60;95.80;;;;;;5032287;28;20219;-83
2023/09/13 18:21:58;;;;;;;18.05;13.10;;;25.60;95.90;;;;;;5031546;28;20207;-80
2023/09/13 18:24:36;;;;;;;20.92;13.38;;;25.60;96.10;;;;;;5030571;28;20195;-79
2023/09/13 18:27:07;;;;;;;19.33;13.77;;;25.60;96.20;;;;;;5031391;28;20201;-75
2023/09/13 18:29:45;;;;;;;20.45;14.00;;;25.50;96.60;;;;;;5030724;28;20191;-79
2023/09/13 18:32:16;;;;;;;22.40;13.35;;;25.40;97.10;;;;;;5030231;28;20206;-76
2023/09/13 18:34:55;;;;;;;21.45;12.55;;;25.30;97.60;;;;;;5031521;28;20290;-74
2023/09/13 18:37:27;;;;;;;23.98;12.55;;;25.30;98.10;;;;;;5030613;28;20357;-80
2023/09/13 18:40:11;;;;;;;27.75;13.57;;;25.20;98.60;;;;;;4997801;28;20515;-80
2023/09/13 18:42:41;;;;;;;19.45;12.57;;;25.00;99.60;;;;;;5031611;28;20238;-80
2023/09/13 18:45:09;;;;;;;22.92;12.07;;;24.90;99.90;;;;;;5014001;28;20746;-81
2023/09/13 18:47:45;;;;;;;23.02;11.50;;;24.80;99.90;;;;;;5031880;28;20196;-80
2023/09/13 18:50:17;;;;;;;19.80;11.80;;;24.70;99.90;;;;;;5031119;28;20306;-79
2023/09/13 18:52:45;;;;;;;23.67;11.07;;;24.50;99.90;;;;;;5031233;28;20270;-78
2023/09/13 18:55:18;;;;;;;21.80;10.75;;;24.40;99.90;;;;;;5031411;28;20221;-79
2023/09/13 18:57:52;;;;;;;16.63;9.73;;;24.20;99.90;;;;;;5030292;28;20207;-81
2023/09/13 19:00:23;;;;;;;14.15;9.45;;;24.20;99.90;;;;;;5031812;28;20191;-80
2023/09/13 19:02:59;;;;;;;16.60;9.52;;;24.10;99.90;;;;;;5031161;28;20272;-79
2023/09/13 19:05:31;;;;;;;12.93;9.15;;;23.90;99.90;;;;;;5031590;28;20305;-80
2023/09/13 19:07:59;;;;;;;20.98;9.55;;;23.70;99.90;;;;;;5031299;28;20271;-80
2023/09/13 19:17:22;;;;;;;34.80;13.17;;;22.90;99.90;;;;;;5009505;28;20309;-76
2023/09/13 19:19:51;;;;;;;22.03;12.30;;;22.10;99.90;;;;;;4993504;28;20192;-81
2023/09/13 19:22:33;;;;;;;19.47;12.30;;;21.30;99.90;;;;;;5013474;28;20216;-79
2023/09/13 19:25:04;;;;;;;24.27;13.00;;;21.00;99.90;;;;;;4998334;28;20204;-80
2023/09/13 19:27:34;;;;;;;22.67;11.77;;;20.60;99.90;;;;;;5013808;28;20230;-78
2023/09/13 19:30:06;;;;;;;16.00;11.37;;;20.40;99.90;;;;;;5013866;28;20246;-76